地図

経路データ

SID SEASON NUMBER BASIN SUBBASIN NAME ISO_TIME NATURE LAT LON WMO_WIND WMO_PRES WMO_AGENCY TRACK_TYPE DIST2LAND LANDFALL IFLAG USA_AGENCY USA_ATCF_ID USA_LAT USA_LON USA_RECORD USA_STATUS USA_WIND USA_PRES USA_SSHS USA_R34_NE USA_R34_SE USA_R34_SW USA_R34_NW USA_R50_NE USA_R50_SE USA_R50_SW USA_R50_NW USA_R64_NE USA_R64_SE USA_R64_SW USA_R64_NW USA_POCI USA_ROCI USA_RMW USA_EYE TOKYO_LAT TOKYO_LON TOKYO_GRADE TOKYO_WIND TOKYO_PRES TOKYO_R50_DIR TOKYO_R50_LONG TOKYO_R50_SHORT TOKYO_R30_DIR TOKYO_R30_LONG TOKYO_R30_SHORT TOKYO_LAND CMA_LAT CMA_LON CMA_CAT CMA_WIND CMA_PRES HKO_LAT HKO_LON HKO_CAT HKO_WIND HKO_PRES NEWDELHI_LAT NEWDELHI_LON NEWDELHI_GRADE NEWDELHI_WIND NEWDELHI_PRES NEWDELHI_CI NEWDELHI_DP NEWDELHI_POCI REUNION_LAT REUNION_LON REUNION_TYPE REUNION_WIND REUNION_PRES REUNION_TNUM REUNION_CI REUNION_RMW REUNION_R34_NE REUNION_R34_SE REUNION_R34_SW REUNION_R34_NW REUNION_R50_NE REUNION_R50_SE REUNION_R50_SW REUNION_R50_NW REUNION_R64_NE REUNION_R64_SE REUNION_R64_SW REUNION_R64_NW BOM_LAT BOM_LON BOM_TYPE BOM_WIND BOM_PRES BOM_TNUM BOM_CI BOM_RMW BOM_R34_NE BOM_R34_SE BOM_R34_SW BOM_R34_NW BOM_R50_NE BOM_R50_SE BOM_R50_SW BOM_R50_NW BOM_R64_NE BOM_R64_SE BOM_R64_SW BOM_R64_NW BOM_ROCI BOM_POCI BOM_EYE BOM_POS_METHOD BOM_PRES_METHOD NADI_LAT NADI_LON NADI_CAT NADI_WIND NADI_PRES WELLINGTON_LAT WELLINGTON_LON WELLINGTON_WIND WELLINGTON_PRES DS824_LAT DS824_LON DS824_STAGE DS824_WIND DS824_PRES TD9636_LAT TD9636_LON TD9636_STAGE TD9636_WIND TD9636_PRES TD9635_LAT TD9635_LON TD9635_WIND TD9635_PRES TD9635_ROCI NEUMANN_LAT NEUMANN_LON NEUMANN_CLASS NEUMANN_WIND NEUMANN_PRES MLC_LAT MLC_LON MLC_CLASS MLC_WIND MLC_PRES USA_GUST BOM_GUST BOM_GUST_PER REUNION_GUST REUNION_GUST_PER USA_SEAHGT USA_SEARAD_NE USA_SEARAD_SE USA_SEARAD_SW USA_SEARAD_NW STORM_SPEED STORM_DIR
2021048N07133 2021 14 WP MM DUJUAN 2021-02-17 06:00:00 TS 6.63333 133.300 PROVISIONAL 686 662 O_____________ tcvitals WP012021 6.60000 133.100 25 1002 -1 1005 200 35 8 280
2021048N07133 2021 14 WP MM DUJUAN 2021-02-17 09:00:00 TS 6.70009 132.927 PROVISIONAL 662 646 P_____________ WP012021 6.71013 132.640 27 1001 -1 1006 205 32 6 283
2021048N07133 2021 14 WP MM DUJUAN 2021-02-17 12:00:00 TS 6.76667 132.700 PROVISIONAL 654 654 O_____________ tcvitals WP012021 6.80000 132.400 29 1000 -1 1007 210 30 3 301
2021048N07133 2021 14 WP MM DUJUAN 2021-02-17 15:00:00 TS 6.83333 132.703 PROVISIONAL 654 654 P_____________ WP012021 6.85750 132.505 29 1000 -1 1006 210 30 1 26
2021048N07133 2021 14 WP MM DUJUAN 2021-02-17 18:00:00 TS 6.90000 132.767 PROVISIONAL 670 663 O_____________ tcvitals WP012021 6.90000 132.700 29 1000 -1 1005 210 30 1 10
2021048N07133 2021 14 WP MM DUJUAN 2021-02-17 21:00:00 TS 6.95664 132.707 PROVISIONAL 671 663 P_____________ WP012021 6.93497 132.710 32 999 -1 1005 210 30 2 304
2021048N07133 2021 14 WP MM DUJUAN 2021-02-18 00:00:00 TS 7.03333 132.567 PROVISIONAL 663 640 O_____________ tcvitals WP012021 7.00000 132.600 35 999 0 85 45 65 85 1005 210 30 4 301
2021048N07133 2021 14 WP MM DUJUAN 2021-02-18 03:00:00 TS 7.17920 132.338 PROVISIONAL 629 607 P_____________ WP012021 7.15754 132.365 35 998 -1 85 45 62 82 1004 200 30 5 300
2021048N07133 2021 14 WP MM DUJUAN 2021-02-18 06:00:00 TS 7.30000 132.100 PROVISIONAL 607 585 O_____________ tcvitals WP012021 7.30000 132.100 35 998 0 85 45 60 80 1004 190 30 4 289
2021048N07133 2021 14 WP MM DUJUAN 2021-02-18 09:00:00 TS 7.31582 131.939 PROVISIONAL 585 574 P_____________ WP012021 7.32999 131.920 35 999 -1 85 45 60 82 1005 190 30 3 263
2021048N07133 2021 14 WP MM DUJUAN 2021-02-18 12:00:00 TS 7.26667 131.833 PROVISIONAL 574 574 O_____________ tcvitals WP012021 7.30000 131.800 35 1001 0 85 45 60 85 1007 190 30 2 228
2021048N07133 2021 14 WP MM DUJUAN 2021-02-18 15:00:00 TS 7.18581 131.796 PROVISIONAL 574 563 P_____________ WP012021 7.24997 131.765 35 998 -1 127 42 117 165 1006 190 30 2 211
2021048N07133 2021 14 WP MM DUJUAN 2021-02-18 18:00:00 TS 7.10000 131.733 PROVISIONAL 563 552 O_____________ tcvitals WP012021 7.20000 131.700 35 995 0 170 40 175 245 1005 190 30 2 239
2021048N07133 2021 14 WP MM DUJUAN 2021-02-18 21:00:00 TS 7.05906 131.584 PROVISIONAL 552 520 P_____________ WP012021 7.19234 131.547 37 994 -1 170 40 175 222 1005 190 30 4 261
2021048N07133 2021 14 WP MM DUJUAN 2021-02-19 00:00:00 TS 7.03333 131.300 PROVISIONAL 520 476 O_____________ tcvitals WP012021 7.20000 131.200 39 993 0 170 40 175 200 1005 190 30 8 265
2021048N07133 2021 14 WP MM DUJUAN 2021-02-19 03:00:00 TS 6.99632 130.829 PROVISIONAL 465 421 P_____________ WP012021 7.19286 130.507 42 992 -1 172 52 172 195 1004 182 30 10 265
2021048N07133 2021 14 WP MM DUJUAN 2021-02-19 06:00:00 TS 6.94545 130.345 PROVISIONAL 411 378 O_____________ tcvitals WP012021 7.20000 129.800 45 991 0 175 65 170 190 1004 175 30 9 266
2021048N07133 2021 14 WP MM DUJUAN 2021-02-19 09:00:00 TS 6.94023 129.959 PROVISIONAL 378 356 P_____________ WP012021 7.33980 129.327 45 992 -1 175 85 135 185 1005 175 30 5 260
2021048N07133 2021 14 WP MM DUJUAN 2021-02-19 12:00:00 TS 6.85039 129.825 PROVISIONAL 356 356 O_____________ tcvitals WP012021 7.30000 129.200 45 994 0 175 105 100 180 1007 175 30 6 160
2021048N07133 2021 14 WP MM DUJUAN 2021-02-19 15:00:00 TS 6.42374 130.149 PROVISIONAL 399 399 P_____________ WP012021 6.68501 129.516 45 992 -1 170 87 112 170 1005 160 30 10 138
2021048N07133 2021 14 WP MM DUJUAN 2021-02-19 18:00:00 TS 6.10000 130.500 PROVISIONAL 450 450 O_____________ tcvitals WP012021 6.10000 130.100 45 991 0 165 70 125 160 1004 145 30 8 109
2021048N07133 2021 14 WP MM DUJUAN 2021-02-19 21:00:00 TS 6.16009 130.911 PROVISIONAL 481 481 P_____________ WP012021 6.13016 130.737 37 995 -1 162 67 120 152 1005 135 30 9 69
2021048N07133 2021 14 WP MM DUJUAN 2021-02-20 00:00:00 TS 6.40000 131.300 PROVISIONAL 523 523 O_____________ tcvitals WP012021 6.40000 131.300 29 999 -1 160 65 115 145 1006 126 30 8 56
2021048N07133 2021 14 WP MM DUJUAN 2021-02-20 03:00:00 TS 6.59745 131.565 PROVISIONAL 557 555 P_____________ WP012021 6.53239 131.620 29 999 -1 1004 108 30 6 35
2021048N07133 2021 14 WP MM DUJUAN 2021-02-20 06:00:00 TS 6.90000 131.650 PROVISIONAL 565 551 O_____________ tcvitals WP012021 6.80000 131.700 29 1000 -1 1003 90 30 8 359
2021048N07133 2021 14 WP MM DUJUAN 2021-02-20 09:00:00 TS 7.42242 131.548 PROVISIONAL 540 518 P_____________ WP012021 7.42235 131.628 29 1000 -1 1003 100 35 11 338
2021048N07133 2021 14 WP MM DUJUAN 2021-02-20 12:00:00 TS 7.90000 131.250 PROVISIONAL 518 465 O_____________ tcvitals WP012021 8.00000 131.300 29 1000 -1 1003 110 40 10 310
2021048N07133 2021 14 WP MM DUJUAN 2021-02-20 15:00:00 TS 8.06017 130.782 PROVISIONAL 465 410 P_____________ WP012021 8.14046 130.605 29 1000 -1 1004 145 42 10 282
2021048N07133 2021 14 WP MM DUJUAN 2021-02-20 18:00:00 TS 8.10000 130.300 PROVISIONAL 410 388 O_____________ tcvitals WP012021 8.10000 130.000 29 1000 -1 1006 180 45 7 278
2021048N07133 2021 14 WP MM DUJUAN 2021-02-20 21:00:00 TS 8.15849 130.113 PROVISIONAL 389 359 P_____________ WP012021 8.03190 130.182 29 1001 -1 1007 180 47 5 292
2021048N07133 2021 14 WP MM DUJUAN 2021-02-21 00:00:00 TS 8.30000 129.800 PROVISIONAL 359 282 O_____________ tcvitals WP012021 8.10000 130.200 29 1003 -1 1008 180 50 12 293
2021048N07133 2021 14 WP MM DUJUAN 2021-02-21 03:00:00 TS 8.62295 128.986 PROVISIONAL 282 199 P_____________ WP012021 8.51103 129.165 32 1003 -1 1008 165 42 19 293
2021048N07133 2021 14 WP MM DUJUAN 2021-02-21 06:00:00 TS 9.05000 128.000 PROVISIONAL 189 104 O_____________ tcvitals WP012021 9.10000 127.800 35 1003 0 1008 150 35 21 296
2021048N07133 2021 14 WP MM DUJUAN 2021-02-21 09:00:00 TS 9.54143 127.067 PROVISIONAL 104 62 P_____________ WP012021 9.78276 126.613 35 1003 -1 1008 155 35 19 299
2021048N07133 2021 14 WP MM DUJUAN 2021-02-21 12:00:00 TS 9.95000 126.350 PROVISIONAL 71 60 O_____________ tcvitals WP012021 10.3000 125.800 35 1003 0 1008 160 35 11 300
2021048N07133 2021 14 WP MM DUJUAN 2021-02-21 15:00:00 TS 10.0984 126.073 PROVISIONAL 68 62 P_____________ WP012021 10.3245 125.715 30 1004 -1 1008 160 37 4 300
2021048N07133 2021 14 WP MM DUJUAN 2021-02-21 18:00:00 TS 10.1429 126.014 PROVISIONAL 62 62 O_____________ tcvitals WP012021 10.2000 125.900 25 1006 -1 1008 160 40 2 308
2021048N07133 2021 14 WP MM DUJUAN 2021-02-21 21:00:00 TS 10.2308 125.899 PROVISIONAL 64 45 P_____________ WP012021 10.2324 125.875 25 1006 -1 1008 160 45 4 310
2021048N07133 2021 14 WP MM DUJUAN 2021-02-22 00:00:00 TS 10.4000 125.700 PROVISIONAL 45 15 O_____________ tcvitals WP012021 10.4000 125.700 25 1006 -1 1008 160 50 8 312
2021048N07133 2021 14 WP MM DUJUAN 2021-02-22 03:00:00 TS 10.7474 125.317 PROVISIONAL 15 0 P_____________ WP012021 10.7400 125.332 22 1007 -1 1008 145 42 12 312
2021048N07133 2021 14 WP MM DUJUAN 2021-02-22 06:00:00 NR 11.2000 124.800 PROVISIONAL 0 0 O_____________ tcgp WP012021 11.2000 124.800 DB 20 1008 -3 1008 130 35 15 311
2021048N07133 2021 14 WP MM DUJUAN 2021-02-22 09:00:00 NR 11.6999 124.202 PROVISIONAL 10 0 P_____________ WP012021 11.6999 124.202 DB 20 1007 -3 1008 130 35 16 308
2021048N07133 2021 14 WP MM DUJUAN 2021-02-22 12:00:00 NR 12.2000 123.500 PROVISIONAL 0 0 O_____________ tcgp WP012021 12.2000 123.500 DB 20 1006 -3 1008 130 35 17 302
2021048N07133 2021 14 WP MM DUJUAN 2021-02-22 15:00:00 NR 12.6072 122.745 PROVISIONAL 66 43 P_____________ WP012021 12.6072 122.745 DB 20 1006 -3 1008 130 35 18 297
2021048N07133 2021 14 WP MM DUJUAN 2021-02-22 18:00:00 NR 13.0000 121.900 PROVISIONAL 43 0 O_____________ tcgp WP012021 13.0000 121.900 DB 20 1006 -3 1008 130 35 19 296
2021048N07133 2021 14 WP MM DUJUAN 2021-02-22 21:00:00 NR 13.4358 120.973 PROVISIONAL 0 0 P_____________ WP012021 13.4358 120.973 DB 20 1006 -3 1008 130 35 21 296
2021048N07133 2021 14 WP MM DUJUAN 2021-02-23 00:00:00 NR 13.9000 120.000 PROVISIONAL 64 O_____________ tcgp WP012021 13.9000 120.000 DB 20 1006 -3 1008 130 35 21 296

デジタル台風データ・検索

IBTrACS Databaseについて

本データベースは、米国NOAAが公開する1842年以降の世界の熱帯低気圧のベストトラックデータアーカイブInternational Best Track Archive for Climate Stewardship (IBTrACS)を、ウェブで閲覧しやすい形式に変換したものです。

最終更新日:2021-10-08